createdAt,value
2022-09-25T00:04:26.516Z,84.06
2022-09-25T00:09:28.737Z,84.03
2022-09-25T00:14:30.929Z,83.92
2022-09-25T00:19:51.211Z,83.90
2022-09-25T00:24:53.464Z,83.96
2022-09-25T00:29:56.317Z,83.97
2022-09-25T00:34:58.477Z,83.56
2022-09-25T00:40:00.793Z,84.07
2022-09-25T00:45:05.752Z,83.93
2022-09-25T00:50:51.941Z,84.10
2022-09-25T00:56:13.722Z,83.93
2022-09-25T01:01:16.311Z,83.76
2022-09-25T01:06:18.711Z,83.56
2022-09-25T01:11:20.896Z,83.69
2022-09-25T01:16:44.951Z,83.61
2022-09-25T01:21:49.702Z,83.23
2022-09-25T01:27:20.797Z,83.37
2022-09-25T01:33:00.151Z,83.16
2022-09-25T01:38:24.407Z,83.25
2022-09-25T01:43:52.372Z,83.16
2022-09-25T01:49:02.131Z,82.78
2022-09-25T01:54:28.429Z,82.96
2022-09-25T01:59:37.969Z,82.94
2022-09-25T02:04:45.239Z,82.97
2022-09-25T02:09:53.601Z,82.83
2022-09-25T02:14:59.603Z,82.93
2022-09-25T02:20:20.360Z,82.78
2022-09-25T02:25:35.986Z,83.11
2022-09-25T02:30:39.605Z,82.83
2022-09-25T02:35:42.614Z,82.64
2022-09-25T02:40:57.109Z,82.78
2022-09-25T02:46:06.432Z,82.38
2022-09-25T02:51:27.892Z,82.51
2022-09-25T02:56:53.018Z,82.33
2022-09-25T03:01:55.663Z,82.46
2022-09-25T03:06:58.096Z,82.15
2022-09-25T03:12:07.087Z,82.15
2022-09-25T03:17:10.524Z,82.11
2022-09-25T03:22:12.771Z,82.21
2022-09-25T03:27:15.063Z,82.09
2022-09-25T03:32:17.268Z,82.04
2022-09-25T03:37:38.429Z,82.18
2022-09-25T03:42:40.665Z,82.10
2022-09-25T03:47:42.867Z,82.16
2022-09-25T03:53:03.931Z,82.08
2022-09-25T03:58:24.815Z,82.02
2022-09-25T04:03:28.762Z,82.05
2022-09-25T04:08:32.103Z,82.09
2022-09-25T04:13:36.707Z,81.96
2022-09-25T04:18:38.988Z,82.02
2022-09-25T04:23:41.629Z,82.03
2022-09-25T04:28:45.613Z,82.19
2022-09-25T04:33:48.451Z,82.44
2022-09-25T04:38:50.983Z,82.24
2022-09-25T04:43:59.227Z,82.34
2022-09-25T04:49:01.488Z,82.43
2022-09-25T04:54:03.932Z,82.54
2022-09-25T04:59:06.325Z,82.54
2022-09-25T05:04:09.115Z,82.28
2022-09-25T05:09:11.501Z,82.55
2022-09-25T05:14:14.223Z,82.54
2022-09-25T05:19:16.973Z,82.50
2022-09-25T05:24:40.770Z,82.51
2022-09-25T05:29:43.005Z,82.64
2022-09-25T05:34:45.215Z,82.69
2022-09-25T05:39:47.490Z,82.80
2022-09-25T05:45:08.883Z,82.74
2022-09-25T05:50:14.066Z,83.00
2022-09-25T05:55:35.080Z,83.09
2022-09-25T06:00:37.305Z,83.00
2022-09-25T06:05:46.452Z,83.15
2022-09-25T06:10:55.175Z,83.09
2022-09-25T06:15:57.595Z,83.09
2022-09-25T06:21:02.797Z,83.08
2022-09-25T06:26:07.175Z,83.15
2022-09-25T06:31:09.487Z,83.52
2022-09-25T06:36:11.695Z,83.25
2022-09-25T06:41:13.842Z,83.18
2022-09-25T06:46:16.316Z,83.34
2022-09-25T06:51:36.974Z,82.97
2022-09-25T06:56:39.569Z,83.24
2022-09-25T07:01:41.751Z,83.42
2022-09-25T07:06:44.464Z,83.15
2022-09-25T07:11:47.509Z,83.33
2022-09-25T07:16:49.943Z,83.04
2022-09-25T07:21:52.489Z,83.11
2022-09-25T07:26:55.133Z,82.93
2022-09-25T07:31:57.311Z,82.88
2022-09-25T07:36:59.520Z,82.58
2022-09-25T07:42:02.007Z,82.64
2022-09-25T07:47:04.863Z,82.31
2022-09-25T07:52:07.159Z,82.44
2022-09-25T07:57:09.574Z,82.32
2022-09-25T08:02:11.792Z,82.50
2022-09-25T08:07:14.314Z,82.42
2022-09-25T08:12:16.539Z,82.38
2022-09-25T08:17:22.225Z,82.15
2022-09-25T08:22:25.206Z,82.33
2022-09-25T08:27:27.527Z,82.02
2022-09-25T08:32:48.076Z,82.12
2022-09-25T08:37:50.280Z,82.08
2022-09-25T08:43:19.037Z,82.10
2022-09-25T08:49:02.461Z,81.87
2022-09-25T08:54:05.639Z,81.80
2022-09-25T08:59:27.159Z,82.14
2022-09-25T09:04:36.796Z,82.04
2022-09-25T09:09:48.752Z,82.01
2022-09-25T09:14:53.304Z,81.90
2022-09-25T09:20:14.674Z,82.23
2022-09-25T09:25:29.273Z,82.69
2022-09-25T09:30:54.171Z,82.67
2022-09-25T09:36:00.356Z,82.20
2022-09-25T09:41:08.453Z,82.16
2022-09-25T09:46:52.641Z,82.16
2022-09-25T09:52:23.794Z,82.00
2022-09-25T09:57:28.301Z,82.17
2022-09-25T10:02:55.540Z,82.30
2022-09-25T10:07:58.033Z,81.97
2022-09-25T10:13:26.720Z,82.13
2022-09-25T10:18:32.101Z,81.94
2022-09-25T10:23:54.586Z,82.15
2022-09-25T10:28:58.960Z,82.43
2022-09-25T10:34:18.284Z,82.61
2022-09-25T10:39:50.630Z,82.59
2022-09-25T10:44:58.075Z,82.09
2022-09-25T10:50:18.831Z,82.34
2022-09-25T10:55:29.051Z,81.94
2022-09-25T11:00:31.407Z,81.95
2022-09-25T11:05:57.833Z,81.88
2022-09-25T11:11:01.175Z,81.94
2022-09-25T11:16:09.720Z,81.96
2022-09-25T11:21:30.492Z,82.11
2022-09-25T11:26:44.346Z,82.02
2022-09-25T11:32:07.611Z,81.91
2022-09-25T11:37:36.691Z,81.65
2022-09-25T11:43:07.303Z,81.62
2022-09-25T11:48:23.603Z,81.71
2022-09-25T11:53:48.074Z,81.72
2022-09-25T11:58:50.671Z,81.69
2022-09-25T12:04:19.073Z,81.99
2022-09-25T12:09:43.971Z,81.89
2022-09-25T12:15:05.460Z,81.87
2022-09-25T12:20:25.390Z,81.81
2022-09-25T12:25:55.407Z,82.37
2022-09-25T12:31:18.006Z,82.37
2022-09-25T12:36:28.936Z,81.95
2022-09-25T12:42:03.681Z,82.41
2022-09-25T12:47:24.144Z,82.52
2022-09-25T12:52:31.803Z,82.34
2022-09-25T12:57:51.726Z,82.74
2022-09-25T13:03:29.355Z,82.74
2022-09-25T13:09:01.553Z,82.56
2022-09-25T13:14:06.341Z,82.38
2022-09-25T13:19:29.549Z,82.45
2022-09-25T13:24:46.835Z,82.54
2022-09-25T13:29:58.089Z,82.70
2022-09-25T13:35:07.090Z,82.72
2022-09-25T13:40:42.754Z,83.06
2022-09-25T13:45:51.933Z,82.49
2022-09-25T13:51:22.824Z,82.93
2022-09-25T13:56:29.800Z,82.79
2022-09-25T14:01:48.834Z,82.92
2022-09-25T14:06:57.418Z,82.75
2022-09-25T14:12:03.432Z,82.78
2022-09-25T14:17:06.517Z,82.61
2022-09-25T14:22:31.274Z,82.43
2022-09-25T14:27:33.523Z,82.44
2022-09-25T14:32:58.141Z,82.81
2022-09-25T14:38:15.502Z,82.51
2022-09-25T14:43:43.015Z,82.76
2022-09-25T14:48:57.865Z,82.72
2022-09-25T14:54:03.771Z,82.64
2022-09-25T14:59:12.384Z,82.49
2022-09-25T15:04:26.450Z,82.70
2022-09-25T15:09:48.682Z,82.97
2022-09-25T15:15:17.629Z,82.82
2022-09-25T15:20:25.071Z,82.60
2022-09-25T15:25:33.558Z,82.74
2022-09-25T15:30:43.835Z,82.76
2022-09-25T15:35:54.592Z,82.89
2022-09-25T15:40:58.276Z,82.59
2022-09-25T15:46:03.785Z,82.70
2022-09-25T15:51:26.054Z,82.89
2022-09-25T15:56:30.702Z,82.35
2022-09-25T16:01:53.678Z,82.69
2022-09-25T16:06:56.035Z,82.54
2022-09-25T16:12:29.128Z,83.11
2022-09-25T16:17:34.792Z,82.87
2022-09-25T16:22:47.611Z,83.27
2022-09-25T16:27:50.025Z,82.85
2022-09-25T16:32:55.600Z,83.10
2022-09-25T16:37:58.175Z,82.80
2022-09-25T16:43:02.627Z,83.01
2022-09-25T16:48:39.642Z,83.42
2022-09-25T16:53:42.007Z,82.76
2022-09-25T16:58:44.377Z,82.91
2022-09-25T17:03:53.042Z,83.10
2022-09-25T17:08:55.365Z,82.90
2022-09-25T17:13:57.556Z,82.91
2022-09-25T17:19:01.657Z,83.06
2022-09-25T17:24:04.317Z,83.08
2022-09-25T17:29:22.796Z,83.17
2022-09-25T17:34:25.130Z,82.85
2022-09-25T17:39:27.400Z,82.95
2022-09-25T17:44:29.742Z,82.83
2022-09-25T17:49:51.485Z,83.02
2022-09-25T17:55:17.493Z,82.99
2022-09-25T18:00:19.723Z,83.25
2022-09-25T18:05:22.028Z,83.08
2022-09-25T18:10:32.767Z,83.13
2022-09-25T18:15:37.068Z,83.04
2022-09-25T18:21:16.351Z,82.88
2022-09-25T18:26:18.635Z,82.99
2022-09-25T18:31:21.813Z,82.95
2022-09-25T18:36:24.721Z,82.75
2022-09-25T18:41:28.074Z,82.99
2022-09-25T18:46:36.434Z,82.81
2022-09-25T18:51:41.630Z,83.00
2022-09-25T18:57:02.788Z,82.75
2022-09-25T19:02:06.747Z,83.13
2022-09-25T19:07:30.863Z,83.07
2022-09-25T19:12:51.688Z,82.93
2022-09-25T19:17:53.904Z,82.98
2022-09-25T19:23:14.937Z,83.18
2022-09-25T19:28:19.541Z,83.11
2022-09-25T19:33:40.705Z,83.03
2022-09-25T19:38:43.808Z,83.12
2022-09-25T19:43:49.409Z,82.86
2022-09-25T19:49:11.040Z,83.14
2022-09-25T19:54:15.158Z,83.07
2022-09-25T19:59:18.035Z,83.01
2022-09-25T20:04:20.280Z,82.98
2022-09-25T20:09:22.494Z,83.15
2022-09-25T20:14:27.517Z,82.96
2022-09-25T20:19:29.805Z,82.84
2022-09-25T20:24:32.063Z,82.96
2022-09-25T20:29:34.301Z,82.98
2022-09-25T20:34:36.505Z,83.19
2022-09-25T20:39:38.985Z,83.18
2022-09-25T20:44:41.188Z,83.13
2022-09-25T20:49:44.098Z,83.09
2022-09-25T20:54:46.283Z,83.29
2022-09-25T21:00:08.158Z,83.28
2022-09-25T21:05:10.927Z,82.95
2022-09-25T21:10:13.144Z,83.12
2022-09-25T21:15:15.325Z,83.02
2022-09-25T21:20:18.839Z,83.19
2022-09-25T21:25:21.223Z,82.94
2022-09-25T21:30:24.458Z,83.12
2022-09-25T21:35:26.899Z,83.18
2022-09-25T21:40:29.081Z,83.35
2022-09-25T21:45:31.861Z,83.11
2022-09-25T21:50:34.119Z,83.22
2022-09-25T21:55:36.329Z,83.30
2022-09-25T22:00:38.570Z,83.23
2022-09-25T22:05:42.195Z,83.35
2022-09-25T22:10:54.877Z,83.57
2022-09-25T22:16:15.473Z,83.63
2022-09-25T22:21:19.993Z,83.36
2022-09-25T22:26:22.976Z,83.33
2022-09-25T22:31:28.226Z,83.45
2022-09-25T22:36:32.190Z,83.16
2022-09-25T22:41:34.489Z,83.38
2022-09-25T22:46:55.851Z,83.30
2022-09-25T22:51:58.179Z,83.36
2022-09-25T22:57:00.433Z,83.56
2022-09-25T23:02:02.673Z,83.62
2022-09-25T23:07:04.885Z,83.82
2022-09-25T23:12:07.127Z,83.76
2022-09-25T23:17:09.477Z,83.58
2022-09-25T23:22:11.772Z,83.84
2022-09-25T23:27:13.952Z,83.58
2022-09-25T23:32:16.197Z,83.59
2022-09-25T23:37:18.379Z,83.53
2022-09-25T23:42:22.412Z,83.69
2022-09-25T23:47:24.702Z,83.62
2022-09-25T23:52:27.332Z,83.54
2022-09-25T23:57:29.519Z,83.53
